sensor_id;sensor_type;location;lat;lon;timestamp;pressure;altitude;pressure_sealevel;temperature;humidity
19676;BME280;39539;52.202;9.876;2023-11-19T00:01:30;100192.47;;;6.18;100.00
19676;BME280;39539;52.202;9.876;2023-11-19T00:03:55;100185.16;;;6.20;100.00
19676;BME280;39539;52.202;9.876;2023-11-19T00:06:21;100169.78;;;6.23;100.00
19676;BME280;39539;52.202;9.876;2023-11-19T00:08:46;100168.97;;;6.23;100.00
19676;BME280;39539;52.202;9.876;2023-11-19T00:11:11;100147.78;;;6.16;100.00
19676;BME280;39539;52.202;9.876;2023-11-19T00:13:40;100157.66;;;6.29;100.00
19676;BME280;39539;52.202;9.876;2023-11-19T00:16:06;100157.81;;;6.27;100.00
19676;BME280;39539;52.202;9.876;2023-11-19T00:18:33;100153.13;;;6.23;100.00
19676;BME280;39539;52.202;9.876;2023-11-19T00:20:59;100151.16;;;6.32;100.00
19676;BME280;39539;52.202;9.876;2023-11-19T00:23:24;100134.94;;;6.35;100.00
19676;BME280;39539;52.202;9.876;2023-11-19T00:25:49;100138.56;;;6.34;100.00
19676;BME280;39539;52.202;9.876;2023-11-19T00:28:15;100135.38;;;6.38;100.00
19676;BME280;39539;52.202;9.876;2023-11-19T00:30:40;100125.59;;;6.32;100.00
19676;BME280;39539;52.202;9.876;2023-11-19T00:33:08;100131.28;;;6.36;100.00
19676;BME280;39539;52.202;9.876;2023-11-19T00:35:33;100114.25;;;6.38;100.00
19676;BME280;39539;52.202;9.876;2023-11-19T00:37:59;100097.84;;;6.43;100.00
19676;BME280;39539;52.202;9.876;2023-11-19T00:40:24;100089.53;;;6.46;100.00
19676;BME280;39539;52.202;9.876;2023-11-19T00:42:52;100102.94;;;6.51;100.00
19676;BME280;39539;52.202;9.876;2023-11-19T00:45:18;100097.66;;;6.51;100.00
19676;BME280;39539;52.202;9.876;2023-11-19T00:47:55;100102.94;;;6.51;100.00
19676;BME280;39539;52.202;9.876;2023-11-19T00:50:21;100107.88;;;6.61;100.00
19676;BME280;39539;52.202;9.876;2023-11-19T00:52:49;100116.47;;;6.69;100.00
19676;BME280;39539;52.202;9.876;2023-11-19T00:55:14;100109.19;;;6.71;100.00
19676;BME280;39539;52.202;9.876;2023-11-19T00:57:40;100114.47;;;6.71;100.00
19676;BME280;39539;52.202;9.876;2023-11-19T01:00:06;100114.31;;;6.80;100.00
19676;BME280;39539;52.202;9.876;2023-11-19T01:02:40;100111.25;;;6.83;100.00
19676;BME280;39539;52.202;9.876;2023-11-19T01:05:08;100106.81;;;6.90;100.00
19676;BME280;39539;52.202;9.876;2023-11-19T01:07:34;100100.34;;;6.99;100.00
19676;BME280;39539;52.202;9.876;2023-11-19T01:10:00;100082.88;;;7.05;100.00
19676;BME280;39539;52.202;9.876;2023-11-19T01:12:26;100086.19;;;7.13;100.00
19676;BME280;39539;52.202;9.876;2023-11-19T01:14:51;100067.47;;;7.08;100.00
19676;BME280;39539;52.202;9.876;2023-11-19T01:17:25;100068.28;;;7.09;100.00
19676;BME280;39539;52.202;9.876;2023-11-19T01:19:50;100050.81;;;7.08;100.00
19676;BME280;39539;52.202;9.876;2023-11-19T01:22:16;100056.09;;;7.14;100.00
19676;BME280;39539;52.202;9.876;2023-11-19T01:24:41;100044.31;;;7.17;100.00
19676;BME280;39539;52.202;9.876;2023-11-19T01:27:06;100043.69;;;7.15;100.00
19676;BME280;39539;52.202;9.876;2023-11-19T01:29:35;100045.34;;;7.29;100.00
19676;BME280;39539;52.202;9.876;2023-11-19T01:32:01;100036.59;;;7.29;100.00
19676;BME280;39539;52.202;9.876;2023-11-19T01:34:26;100041.09;;;7.35;100.00
19676;BME280;39539;52.202;9.876;2023-11-19T01:36:52;100042.06;;;7.27;100.00
19676;BME280;39539;52.202;9.876;2023-11-19T01:39:18;100046.16;;;7.30;100.00
19676;BME280;39539;52.202;9.876;2023-11-19T01:41:45;100027.88;;;7.35;100.00
19676;BME280;39539;52.202;9.876;2023-11-19T01:44:13;100030.28;;;7.30;100.00
19676;BME280;39539;52.202;9.876;2023-11-19T01:46:40;100022.16;;;7.38;100.00
19676;BME280;39539;52.202;9.876;2023-11-19T01:49:10;100002.84;;;7.24;100.00
19676;BME280;39539;52.202;9.876;2023-11-19T01:51:39;100008.97;;;7.31;100.00
19676;BME280;39539;52.202;9.876;2023-11-19T01:54:08;100012.22;;;7.33;100.00
19676;BME280;39539;52.202;9.876;2023-11-19T01:56:34;100012.41;;;7.32;100.00
19676;BME280;39539;52.202;9.876;2023-11-19T01:59:00;99993.69;;;7.27;100.00
19676;BME280;39539;52.202;9.876;2023-11-19T02:01:27;99994.91;;;7.24;100.00
19676;BME280;39539;52.202;9.876;2023-11-19T02:03:52;99997.16;;;7.20;100.00
19676;BME280;39539;52.202;9.876;2023-11-19T02:06:19;99995.94;;;7.30;100.00
19676;BME280;39539;52.202;9.876;2023-11-19T02:08:46;99992.88;;;7.33;100.00
19676;BME280;39539;52.202;9.876;2023-11-19T02:11:14;99988.63;;;7.32;100.00
19676;BME280;39539;52.202;9.876;2023-11-19T02:13:40;99985.97;;;7.32;100.00
19676;BME280;39539;52.202;9.876;2023-11-19T02:16:06;99990.63;;;7.30;100.00
19676;BME280;39539;52.202;9.876;2023-11-19T02:18:33;99972.94;;;7.24;100.00
19676;BME280;39539;52.202;9.876;2023-11-19T02:20:59;99961.38;;;7.25;100.00
19676;BME280;39539;52.202;9.876;2023-11-19T02:23:27;99953.03;;;7.14;100.00
19676;BME280;39539;52.202;9.876;2023-11-19T02:26:09;99955.06;;;7.19;100.00
19676;BME280;39539;52.202;9.876;2023-11-19T02:28:39;99958.31;;;7.21;100.00
19676;BME280;39539;52.202;9.876;2023-11-19T02:31:08;99952.03;;;7.22;100.00
19676;BME280;39539;52.202;9.876;2023-11-19T02:33:40;99960.97;;;7.28;100.00
19676;BME280;39539;52.202;9.876;2023-11-19T02:36:06;99944.28;;;7.27;100.00
19676;BME280;39539;52.202;9.876;2023-11-19T02:38:35;99951.00;;;7.30;100.00
19676;BME280;39539;52.202;9.876;2023-11-19T02:41:04;99943.25;;;7.35;100.00
19676;BME280;39539;52.202;9.876;2023-11-19T02:43:34;99937.78;;;7.30;100.00
19676;BME280;39539;52.202;9.876;2023-11-19T02:46:02;99938.59;;;7.37;100.00
19676;BME280;39539;52.202;9.876;2023-11-19T02:48:28;99936.56;;;7.39;100.00
19676;BME280;39539;52.202;9.876;2023-11-19T02:50:54;99930.88;;;7.42;100.00
19676;BME280;39539;52.202;9.876;2023-11-19T02:53:22;99926.78;;;7.46;100.00
19676;BME280;39539;52.202;9.876;2023-11-19T02:55:48;99912.94;;;7.44;100.00
19676;BME280;39539;52.202;9.876;2023-11-19T03:01:36;99897.09;;;7.57;100.00
19676;BME280;39539;52.202;9.876;2023-11-19T03:04:02;99897.69;;;7.59;100.00
19676;BME280;39539;52.202;9.876;2023-11-19T03:06:35;99903.78;;;7.67;100.00
19676;BME280;39539;52.202;9.876;2023-11-19T03:09:00;99894.63;;;7.69;100.00
19676;BME280;39539;52.202;9.876;2023-11-19T03:11:31;99890.53;;;7.67;100.00
19676;BME280;39539;52.202;9.876;2023-11-19T03:13:58;99892.38;;;7.66;100.00
19676;BME280;39539;52.202;9.876;2023-11-19T03:16:24;99881.19;;;7.71;100.00
19676;BME280;39539;52.202;9.876;2023-11-19T03:18:50;99865.31;;;7.71;100.00
19676;BME280;39539;52.202;9.876;2023-11-19T03:21:15;99841.94;;;7.68;100.00
19676;BME280;39539;52.202;9.876;2023-11-19T03:23:40;99866.72;;;7.80;100.00
19676;BME280;39539;52.202;9.876;2023-11-19T03:26:06;99854.31;;;7.74;100.00
19676;BME280;39539;52.202;9.876;2023-11-19T03:28:31;99873.81;;;7.86;100.00
19676;BME280;39539;52.202;9.876;2023-11-19T03:30:58;99879.91;;;7.93;100.00
19676;BME280;39539;52.202;9.876;2023-11-19T03:33:23;99872.56;;;7.95;100.00
19676;BME280;39539;52.202;9.876;2023-11-19T03:35:50;99901.44;;;8.03;100.00
19676;BME280;39539;52.202;9.876;2023-11-19T03:38:17;99897.38;;;8.07;100.00
19676;BME280;39539;52.202;9.876;2023-11-19T03:40:42;99881.91;;;8.04;100.00
19676;BME280;39539;52.202;9.876;2023-11-19T03:43:10;99898.75;;;8.17;100.00
19676;BME280;39539;52.202;9.876;2023-11-19T03:45:40;99895.28;;;8.16;100.00
19676;BME280;39539;52.202;9.876;2023-11-19T03:48:06;99893.03;;;8.20;100.00
19676;BME280;39539;52.202;9.876;2023-11-19T03:50:32;99887.31;;;8.23;100.00
19676;BME280;39539;52.202;9.876;2023-11-19T03:52:58;99887.69;;;8.33;100.00
19676;BME280;39539;52.202;9.876;2023-11-19T03:55:24;99886.66;;;8.34;100.00
19676;BME280;39539;52.202;9.876;2023-11-19T03:57:49;99872.19;;;8.37;100.00
19676;BME280;39539;52.202;9.876;2023-11-19T04:00:16;99855.88;;;8.40;100.00
19676;BME280;39539;52.202;9.876;2023-11-19T04:02:42;99860.16;;;8.34;100.00
19676;BME280;39539;52.202;9.876;2023-11-19T04:05:08;99855.25;;;8.38;100.00
19676;BME280;39539;52.202;9.876;2023-11-19T04:07:38;99852.00;;;8.42;100.00
19676;BME280;39539;52.202;9.876;2023-11-19T04:10:03;99852.81;;;8.43;100.00
19676;BME280;39539;52.202;9.876;2023-11-19T04:12:32;99841.38;;;8.49;100.00
19676;BME280;39539;52.202;9.876;2023-11-19T04:14:57;99832.78;;;8.53;100.00
19676;BME280;39539;52.202;9.876;2023-11-19T04:17:22;99841.72;;;8.59;100.00
19676;BME280;39539;52.202;9.876;2023-11-19T04:19:49;99848.59;;;8.67;100.00
19676;BME280;39539;52.202;9.876;2023-11-19T04:22:16;99847.38;;;8.69;100.00
19676;BME280;39539;52.202;9.876;2023-11-19T04:24:41;99840.59;;;8.73;100.00
19676;BME280;39539;52.202;9.876;2023-11-19T04:27:09;99845.47;;;8.76;100.00
19676;BME280;39539;52.202;9.876;2023-11-19T04:29:34;99853.97;;;8.85;100.00
19676;BME280;39539;52.202;9.876;2023-11-19T04:31:59;99847.53;;;8.99;100.00
19676;BME280;39539;52.202;9.876;2023-11-19T04:34:26;99861.97;;;9.04;100.00
19676;BME280;39539;52.202;9.876;2023-11-19T04:36:51;99845.84;;;9.05;100.00
19676;BME280;39539;52.202;9.876;2023-11-19T04:39:16;99851.94;;;9.06;100.00
19676;BME280;39539;52.202;9.876;2023-11-19T04:41:51;99850.72;;;9.08;100.00
19676;BME280;39539;52.202;9.876;2023-11-19T04:44:19;99845.81;;;9.12;100.00
19676;BME280;39539;52.202;9.876;2023-11-19T04:46:45;99853.50;;;9.20;100.00
19676;BME280;39539;52.202;9.876;2023-11-19T04:49:12;99863.34;;;9.31;100.00
19676;BME280;39539;52.202;9.876;2023-11-19T04:51:42;99870.47;;;9.37;100.00
19676;BME280;39539;52.202;9.876;2023-11-19T04:54:11;99862.88;;;9.41;100.00
19676;BME280;39539;52.202;9.876;2023-11-19T04:56:36;99871.03;;;9.39;100.00
19676;BME280;39539;52.202;9.876;2023-11-19T04:59:02;99862.19;;;9.27;100.00
19676;BME280;39539;52.202;9.876;2023-11-19T05:01:28;99871.44;;;9.43;100.00
19676;BME280;39539;52.202;9.876;2023-11-19T05:03:53;99870.03;;;9.40;100.00
19676;BME280;39539;52.202;9.876;2023-11-19T05:06:19;99864.03;;;9.45;100.00
19676;BME280;39539;52.202;9.876;2023-11-19T05:08:45;99860.59;;;9.44;100.00
19676;BME280;39539;52.202;9.876;2023-11-19T05:11:11;99855.34;;;9.38;100.00
19676;BME280;39539;52.202;9.876;2023-11-19T05:13:38;99848.34;;;9.43;100.00
19676;BME280;39539;52.202;9.876;2023-11-19T05:16:04;99849.53;;;9.48;100.00
19676;BME280;39539;52.202;9.876;2023-11-19T05:18:29;99843.06;;;9.43;100.00
19676;BME280;39539;52.202;9.876;2023-11-19T05:20:55;99838.75;;;9.42;100.00
19676;BME280;39539;52.202;9.876;2023-11-19T05:23:21;99829.19;;;9.41;100.00
19676;BME280;39539;52.202;9.876;2023-11-19T05:25:48;99825.50;;;9.42;100.00
19676;BME280;39539;52.202;9.876;2023-11-19T05:28:13;99805.75;;;9.38;100.00
19676;BME280;39539;52.202;9.876;2023-11-19T05:30:39;99816.44;;;9.50;100.00
19676;BME280;39539;52.202;9.876;2023-11-19T05:33:05;99811.38;;;9.49;100.00
19676;BME280;39539;52.202;9.876;2023-11-19T05:35:34;99798.69;;;9.51;100.00
19676;BME280;39539;52.202;9.876;2023-11-19T05:37:59;99810.50;;;9.55;100.00
19676;BME280;39539;52.202;9.876;2023-11-19T05:40:24;99812.69;;;9.58;100.00
19676;BME280;39539;52.202;9.876;2023-11-19T05:42:59;99819.78;;;9.64;100.00
19676;BME280;39539;52.202;9.876;2023-11-19T05:45:26;99823.03;;;9.66;100.00
19676;BME280;39539;52.202;9.876;2023-11-19T05:47:51;99835.84;;;9.69;100.00
19676;BME280;39539;52.202;9.876;2023-11-19T05:50:17;99826.84;;;9.70;100.00
19676;BME280;39539;52.202;9.876;2023-11-19T05:52:46;99828.03;;;9.74;100.00
19676;BME280;39539;52.202;9.876;2023-11-19T05:55:12;99829.34;;;9.83;100.00
19676;BME280;39539;52.202;9.876;2023-11-19T05:57:38;99829.94;;;9.85;100.00
19676;BME280;39539;52.202;9.876;2023-11-19T06:00:05;99825.78;;;9.89;100.00
19676;BME280;39539;52.202;9.876;2023-11-19T06:02:33;99806.94;;;9.79;100.00
19676;BME280;39539;52.202;9.876;2023-11-19T06:05:00;99820.63;;;9.76;100.00
19676;BME280;39539;52.202;9.876;2023-11-19T06:07:27;99827.88;;;9.69;100.00
19676;BME280;39539;52.202;9.876;2023-11-19T06:09:53;99803.69;;;9.59;100.00
19676;BME280;39539;52.202;9.876;2023-11-19T06:12:18;99823.16;;;9.53;100.00
19676;BME280;39539;52.202;9.876;2023-11-19T06:14:45;99807.25;;;9.34;100.00
19676;BME280;39539;52.202;9.876;2023-11-19T06:17:20;99801.34;;;9.32;100.00
19676;BME280;39539;52.202;9.876;2023-11-19T06:19:46;99807.38;;;9.39;100.00
19676;BME280;39539;52.202;9.876;2023-11-19T06:22:11;99826.09;;;9.44;100.00
19676;BME280;39539;52.202;9.876;2023-11-19T06:24:37;99819.53;;;9.47;100.00
19676;BME280;39539;52.202;9.876;2023-11-19T06:27:02;99808.66;;;9.55;100.00
19676;BME280;39539;52.202;9.876;2023-11-19T06:29:29;99826.41;;;9.73;100.00
19676;BME280;39539;52.202;9.876;2023-11-19T06:31:58;99833.84;;;9.83;100.00
19676;BME280;39539;52.202;9.876;2023-11-19T06:34:23;99831.47;;;9.93;100.00
19676;BME280;39539;52.202;9.876;2023-11-19T06:36:50;99845.97;;;10.09;100.00
19676;BME280;39539;52.202;9.876;2023-11-19T06:39:16;99841.16;;;10.18;100.00
19676;BME280;39539;52.202;9.876;2023-11-19T06:41:49;99860.72;;;10.23;100.00
19676;BME280;39539;52.202;9.876;2023-11-19T06:44:15;99854.53;;;10.29;100.00
19676;BME280;39539;52.202;9.876;2023-11-19T06:46:41;99849.22;;;10.29;100.00
19676;BME280;39539;52.202;9.876;2023-11-19T06:49:06;99857.09;;;10.36;100.00
19676;BME280;39539;52.202;9.876;2023-11-19T06:51:34;99860.72;;;10.42;100.00
19676;BME280;39539;52.202;9.876;2023-11-19T06:54:00;99853.91;;;10.46;100.00
19676;BME280;39539;52.202;9.876;2023-11-19T06:56:25;99847.31;;;10.48;100.00
19676;BME280;39539;52.202;9.876;2023-11-19T06:58:51;99853.78;;;10.52;100.00
19676;BME280;39539;52.202;9.876;2023-11-19T07:01:17;99856.44;;;10.52;100.00
19676;BME280;39539;52.202;9.876;2023-11-19T07:03:44;99861.78;;;10.64;100.00
19676;BME280;39539;52.202;9.876;2023-11-19T07:06:16;99871.88;;;10.74;100.00
19676;BME280;39539;52.202;9.876;2023-11-19T07:08:42;99863.91;;;10.74;100.00
19676;BME280;39539;52.202;9.876;2023-11-19T07:11:11;99881.25;;;10.76;100.00
19676;BME280;39539;52.202;9.876;2023-11-19T07:13:38;99879.75;;;10.81;100.00
19676;BME280;39539;52.202;9.876;2023-11-19T07:16:03;99878.94;;;10.80;100.00
19676;BME280;39539;52.202;9.876;2023-11-19T07:18:29;99886.25;;;10.85;100.00
19676;BME280;39539;52.202;9.876;2023-11-19T07:20:57;99878.03;;;10.86;100.00
19676;BME280;39539;52.202;9.876;2023-11-19T07:23:26;99878.50;;;10.83;100.00
19676;BME280;39539;52.202;9.876;2023-11-19T07:25:52;99878.16;;;10.79;100.00
19676;BME280;39539;52.202;9.876;2023-11-19T07:28:18;99863.91;;;10.74;100.00
19676;BME280;39539;52.202;9.876;2023-11-19T07:30:53;99878.47;;;10.71;100.00
19676;BME280;39539;52.202;9.876;2023-11-19T07:33:21;99878.47;;;10.71;100.00
19676;BME280;39539;52.202;9.876;2023-11-19T07:35:46;99884.41;;;10.85;100.00
19676;BME280;39539;52.202;9.876;2023-11-19T07:38:11;99884.94;;;11.41;100.00
19676;BME280;39539;52.202;9.876;2023-11-19T07:40:46;99902.00;;;12.04;100.00
19676;BME280;39539;52.202;9.876;2023-11-19T07:43:12;99899.00;;;12.41;100.00
19676;BME280;39539;52.202;9.876;2023-11-19T07:45:38;99902.16;;;12.83;100.00
19676;BME280;39539;52.202;9.876;2023-11-19T07:48:04;99897.97;;;13.04;100.00
19676;BME280;39539;52.202;9.876;2023-11-19T07:50:31;99895.22;;;13.16;100.00
19676;BME280;39539;52.202;9.876;2023-11-19T07:52:56;99893.34;;;13.28;100.00
19676;BME280;39539;52.202;9.876;2023-11-19T07:55:22;99881.09;;;13.32;100.00
19676;BME280;39539;52.202;9.876;2023-11-19T07:57:47;99883.72;;;13.66;100.00
19676;BME280;39539;52.202;9.876;2023-11-19T08:00:14;99878.53;;;13.76;100.00
19676;BME280;39539;52.202;9.876;2023-11-19T08:02:40;99886.13;;;13.45;100.00
19676;BME280;39539;52.202;9.876;2023-11-19T08:05:06;99879.16;;;13.11;100.00
19676;BME280;39539;52.202;9.876;2023-11-19T08:07:31;99878.50;;;13.03;100.00
19676;BME280;39539;52.202;9.876;2023-11-19T08:09:58;99883.75;;;12.98;100.00
19676;BME280;39539;52.202;9.876;2023-11-19T08:12:25;99862.66;;;12.80;100.00
19676;BME280;39539;52.202;9.876;2023-11-19T08:14:56;99873.56;;;12.95;100.00
19676;BME280;39539;52.202;9.876;2023-11-19T08:17:23;99879.38;;;12.92;100.00
19676;BME280;39539;52.202;9.876;2023-11-19T08:19:49;99861.09;;;12.84;100.00
19676;BME280;39539;52.202;9.876;2023-11-19T08:22:16;99870.28;;;12.59;100.00
19676;BME280;39539;52.202;9.876;2023-11-19T08:24:45;99879.81;;;12.55;100.00
19676;BME280;39539;52.202;9.876;2023-11-19T08:27:10;99879.53;;;12.40;100.00
19676;BME280;39539;52.202;9.876;2023-11-19T08:29:37;99882.22;;;12.28;100.00
19676;BME280;39539;52.202;9.876;2023-11-19T08:32:04;99879.38;;;12.18;100.00
19676;BME280;39539;52.202;9.876;2023-11-19T08:34:30;99883.81;;;12.12;100.00
19676;BME280;39539;52.202;9.876;2023-11-19T08:36:55;99888.59;;;11.99;100.00
19676;BME280;39539;52.202;9.876;2023-11-19T08:39:21;99879.44;;;11.83;100.00
19676;BME280;39539;52.202;9.876;2023-11-19T08:41:47;99876.31;;;11.74;100.00
19676;BME280;39539;52.202;9.876;2023-11-19T08:44:13;99873.00;;;11.67;100.00
19676;BME280;39539;52.202;9.876;2023-11-19T08:46:38;99861.53;;;11.66;100.00
19676;BME280;39539;52.202;9.876;2023-11-19T08:49:05;99883.97;;;11.71;100.00
19676;BME280;39539;52.202;9.876;2023-11-19T08:51:30;99879.56;;;11.88;100.00
19676;BME280;39539;52.202;9.876;2023-11-19T08:53:56;99881.16;;;12.12;100.00
19676;BME280;39539;52.202;9.876;2023-11-19T08:56:22;99884.00;;;12.23;100.00
19676;BME280;39539;52.202;9.876;2023-11-19T08:58:53;99883.78;;;12.24;100.00
19676;BME280;39539;52.202;9.876;2023-11-19T09:01:18;99883.91;;;12.18;100.00
19676;BME280;39539;52.202;9.876;2023-11-19T09:03:43;99886.09;;;12.21;100.00
19676;BME280;39539;52.202;9.876;2023-11-19T09:06:09;99881.19;;;12.01;100.00
19676;BME280;39539;52.202;9.876;2023-11-19T09:08:44;99881.44;;;11.76;100.00
19676;BME280;39539;52.202;9.876;2023-11-19T09:11:09;99876.56;;;11.73;100.00
19676;BME280;39539;52.202;9.876;2023-11-19T09:13:35;99882.00;;;11.78;100.00
19676;BME280;39539;52.202;9.876;2023-11-19T09:16:01;99883.63;;;11.79;100.00
19676;BME280;39539;52.202;9.876;2023-11-19T09:18:29;99888.81;;;11.74;100.00
19676;BME280;39539;52.202;9.876;2023-11-19T09:20:55;99885.38;;;11.61;100.00
19676;BME280;39539;52.202;9.876;2023-11-19T09:23:20;99891.75;;;11.49;100.00
19676;BME280;39539;52.202;9.876;2023-11-19T09:25:46;99900.66;;;11.42;100.00
19676;BME280;39539;52.202;9.876;2023-11-19T09:28:11;99904.25;;;11.48;100.00
19676;BME280;39539;52.202;9.876;2023-11-19T09:30:36;99905.28;;;11.47;100.00
19676;BME280;39539;52.202;9.876;2023-11-19T09:33:01;99888.75;;;11.33;100.00
19676;BME280;39539;52.202;9.876;2023-11-19T09:35:27;99894.75;;;11.29;100.00
19676;BME280;39539;52.202;9.876;2023-11-19T09:37:52;99897.66;;;11.39;100.00
19676;BME280;39539;52.202;9.876;2023-11-19T09:40:19;99911.53;;;11.41;100.00
19676;BME280;39539;52.202;9.876;2023-11-19T09:42:45;99916.53;;;11.61;100.00
19676;BME280;39539;52.202;9.876;2023-11-19T09:45:16;99916.63;;;11.78;100.00
19676;BME280;39539;52.202;9.876;2023-11-19T09:47:44;99920.22;;;11.95;100.00
19676;BME280;39539;52.202;9.876;2023-11-19T09:50:19;99928.03;;;12.13;100.00
19676;BME280;39539;52.202;9.876;2023-11-19T09:52:46;99914.59;;;12.08;100.00
19676;BME280;39539;52.202;9.876;2023-11-19T09:55:12;99913.69;;;12.03;100.00
19676;BME280;39539;52.202;9.876;2023-11-19T09:57:41;99905.50;;;12.04;100.00
19676;BME280;39539;52.202;9.876;2023-11-19T10:00:07;99907.38;;;11.92;100.00
19676;BME280;39539;52.202;9.876;2023-11-19T10:02:35;99911.06;;;11.91;100.00
19676;BME280;39539;52.202;9.876;2023-11-19T10:05:06;99904.22;;;12.07;100.00
19676;BME280;39539;52.202;9.876;2023-11-19T10:07:33;99904.44;;;12.05;100.00
19676;BME280;39539;52.202;9.876;2023-11-19T10:10:03;99891.44;;;12.21;100.00
19676;BME280;39539;52.202;9.876;2023-11-19T10:12:32;99888.66;;;12.16;100.00
19676;BME280;39539;52.202;9.876;2023-11-19T10:14:59;99894.56;;;12.18;100.00
19676;BME280;39539;52.202;9.876;2023-11-19T10:17:28;99894.38;;;12.36;100.00
19676;BME280;39539;52.202;9.876;2023-11-19T10:19:54;99906.00;;;12.58;100.00
19676;BME280;39539;52.202;9.876;2023-11-19T10:22:22;99915.34;;;12.90;100.00
19676;BME280;39539;52.202;9.876;2023-11-19T10:24:47;99910.28;;;12.88;100.00
19676;BME280;39539;52.202;9.876;2023-11-19T10:27:18;99916.44;;;12.60;100.00
19676;BME280;39539;52.202;9.876;2023-11-19T10:29:47;99915.53;;;12.54;100.00
19676;BME280;39539;52.202;9.876;2023-11-19T10:32:31;99920.66;;;12.44;100.00
19676;BME280;39539;52.202;9.876;2023-11-19T10:35:10;99914.94;;;12.24;100.00
19676;BME280;39539;52.202;9.876;2023-11-19T10:37:39;99911.66;;;11.93;100.00
19676;BME280;39539;52.202;9.876;2023-11-19T10:40:06;99894.03;;;11.80;100.00
19676;BME280;39539;52.202;9.876;2023-11-19T10:42:35;99904.00;;;11.73;100.00
19676;BME280;39539;52.202;9.876;2023-11-19T10:45:02;99901.22;;;11.56;100.00
19676;BME280;39539;52.202;9.876;2023-11-19T10:47:29;99910.63;;;11.47;100.00
19676;BME280;39539;52.202;9.876;2023-11-19T10:49:55;99902.63;;;11.35;100.00
19676;BME280;39539;52.202;9.876;2023-11-19T10:52:21;99901.72;;;11.41;100.00
19676;BME280;39539;52.202;9.876;2023-11-19T10:54:50;99896.25;;;11.48;100.00
19676;BME280;39539;52.202;9.876;2023-11-19T10:57:20;99906.91;;;11.48;100.00
19676;BME280;39539;52.202;9.876;2023-11-19T10:59:52;99900.56;;;11.61;100.00
19676;BME280;39539;52.202;9.876;2023-11-19T11:02:23;99905.28;;;11.71;100.00
19676;BME280;39539;52.202;9.876;2023-11-19T11:04:59;99897.16;;;11.65;100.00
19676;BME280;39539;52.202;9.876;2023-11-19T11:07:25;99884.94;;;11.53;100.00
19676;BME280;39539;52.202;9.876;2023-11-19T11:09:51;99899.63;;;11.55;100.00
19676;BME280;39539;52.202;9.876;2023-11-19T11:12:22;99901.34;;;11.61;100.00
19676;BME280;39539;52.202;9.876;2023-11-19T11:14:49;99902.38;;;11.60;100.00
19676;BME280;39539;52.202;9.876;2023-11-19T11:17:17;99890.47;;;11.51;100.00
19676;BME280;39539;52.202;9.876;2023-11-19T11:19:44;99896.38;;;11.53;100.00
19676;BME280;39539;52.202;9.876;2023-11-19T11:22:11;99893.47;;;11.43;100.00
19676;BME280;39539;52.202;9.876;2023-11-19T11:27:52;99889.19;;;11.65;100.00
19676;BME280;39539;52.202;9.876;2023-11-19T11:30:49;99887.91;;;11.91;100.00
19676;BME280;39539;52.202;9.876;2023-11-19T11:33:54;99888.81;;;12.09;100.00
19676;BME280;39539;52.202;9.876;2023-11-19T11:36:23;99880.34;;;12.12;100.00
19676;BME280;39539;52.202;9.876;2023-11-19T11:38:49;99889.91;;;12.25;100.00
19676;BME280;39539;52.202;9.876;2023-11-19T11:41:23;99891.13;;;12.34;100.00
19676;BME280;39539;52.202;9.876;2023-11-19T11:43:54;99890.28;;;12.45;100.00
19676;BME280;39539;52.202;9.876;2023-11-19T11:49:06;99886.69;;;12.51;100.00
19676;BME280;39539;52.202;9.876;2023-11-19T11:57:07;99875.44;;;12.49;100.00
19676;BME280;39539;52.202;9.876;2023-11-19T11:59:51;99869.16;;;12.55;100.00
19676;BME280;39539;52.202;9.876;2023-11-19T12:02:20;99863.50;;;12.52;100.00
19676;BME280;39539;52.202;9.876;2023-11-19T12:04:50;99871.06;;;12.43;100.00
19676;BME280;39539;52.202;9.876;2023-11-19T12:07:21;99867.31;;;12.27;100.00
19676;BME280;39539;52.202;9.876;2023-11-19T12:09:53;99863.88;;;12.15;100.00
19676;BME280;39539;52.202;9.876;2023-11-19T12:12:27;99869.06;;;12.22;100.00
19676;BME280;39539;52.202;9.876;2023-11-19T12:20:04;99863.63;;;12.45;100.00
19676;BME280;39539;52.202;9.876;2023-11-19T12:22:31;99865.91;;;12.53;100.00
19676;BME280;39539;52.202;9.876;2023-11-19T12:24:56;99867.88;;;12.58;100.00
19676;BME280;39539;52.202;9.876;2023-11-19T12:27:22;99850.19;;;12.69;100.00
19676;BME280;39539;52.202;9.876;2023-11-19T12:29:48;99853.97;;;12.73;100.00
19676;BME280;39539;52.202;9.876;2023-11-19T12:32:14;99862.00;;;12.90;100.00
19676;BME280;39539;52.202;9.876;2023-11-19T12:34:41;99867.59;;;13.05;100.00
19676;BME280;39539;52.202;9.876;2023-11-19T12:37:06;99853.19;;;13.06;100.00
19676;BME280;39539;52.202;9.876;2023-11-19T12:39:32;99852.63;;;13.04;99.88
19676;BME280;39539;52.202;9.876;2023-11-19T12:41:57;99854.56;;;13.09;99.85
19676;BME280;39539;52.202;9.876;2023-11-19T12:44:26;99857.25;;;13.09;100.00
19676;BME280;39539;52.202;9.876;2023-11-19T12:47:08;99850.75;;;13.04;100.00
19676;BME280;39539;52.202;9.876;2023-11-19T12:49:36;99856.66;;;12.90;100.00
19676;BME280;39539;52.202;9.876;2023-11-19T12:52:02;99846.31;;;12.76;100.00
19676;BME280;39539;52.202;9.876;2023-11-19T12:54:36;99844.28;;;12.67;100.00
19676;BME280;39539;52.202;9.876;2023-11-19T12:57:02;99840.31;;;12.52;100.00
19676;BME280;39539;52.202;9.876;2023-11-19T12:59:28;99850.88;;;12.47;100.00
19676;BME280;39539;52.202;9.876;2023-11-19T13:01:57;99844.97;;;12.45;100.00
19676;BME280;39539;52.202;9.876;2023-11-19T13:04:27;99840.13;;;12.42;100.00
19676;BME280;39539;52.202;9.876;2023-11-19T13:06:55;99842.75;;;12.25;100.00
19676;BME280;39539;52.202;9.876;2023-11-19T13:09:28;99845.28;;;12.03;100.00
19676;BME280;39539;52.202;9.876;2023-11-19T13:11:55;99843.94;;;11.89;100.00
19676;BME280;39539;52.202;9.876;2023-11-19T13:14:22;99841.59;;;11.81;100.00